createdAt,value
2023-02-11T00:01:30.502Z,98.63
2023-02-11T00:03:58.553Z,99.07
2023-02-11T00:06:26.524Z,98.87
2023-02-11T00:08:53.250Z,98.79
2023-02-11T00:11:21.419Z,98.87
2023-02-11T00:13:48.890Z,98.85
2023-02-11T00:16:20.961Z,98.87
2023-02-11T00:18:48.482Z,98.90
2023-02-11T00:21:17.580Z,98.72
2023-02-11T00:23:45.583Z,98.75
2023-02-11T00:26:24.800Z,98.67
2023-02-11T00:28:52.294Z,98.75
2023-02-11T00:31:20.541Z,98.67
2023-02-11T00:33:47.646Z,98.70
2023-02-11T00:36:16.854Z,98.50
2023-02-11T00:38:44.620Z,98.62
2023-02-11T00:41:12.294Z,98.64
2023-02-11T00:43:39.585Z,98.62
2023-02-11T00:46:06.933Z,98.57
2023-02-11T00:48:33.824Z,98.63
2023-02-11T00:51:00.793Z,98.28
2023-02-11T00:53:27.531Z,98.59
2023-02-11T00:55:54.110Z,98.67
2023-02-11T00:58:21.418Z,98.68
2023-02-11T01:00:48.446Z,98.77
2023-02-11T01:03:15.252Z,98.75
2023-02-11T01:05:41.856Z,98.79
2023-02-11T01:08:08.698Z,98.84
2023-02-11T01:10:41.691Z,98.77
2023-02-11T01:13:08.374Z,98.77
2023-02-11T01:15:35.166Z,98.47
2023-02-11T01:18:02.056Z,99.12
2023-02-11T01:20:29.791Z,98.78
2023-02-11T01:22:57.345Z,98.88
2023-02-11T01:25:24.015Z,99.01
2023-02-11T01:27:50.627Z,98.98
2023-02-11T01:30:17.487Z,99.03
2023-02-11T01:32:44.066Z,99.08
2023-02-11T01:35:10.758Z,99.27
2023-02-11T01:37:37.546Z,99.10
2023-02-11T01:40:11.998Z,99.10
2023-02-11T01:42:38.886Z,99.11
2023-02-11T01:45:39.709Z,99.19
2023-02-11T01:48:07.090Z,99.26
2023-02-11T01:50:34.102Z,99.24
2023-02-11T01:53:20.987Z,99.57
2023-02-11T01:56:06.349Z,99.77
2023-02-11T01:58:33.556Z,99.65
2023-02-11T02:01:01.151Z,99.79
2023-02-11T02:03:28.500Z,99.73
2023-02-11T02:06:17.132Z,99.97
2023-02-11T02:08:57.216Z,100.00
2023-02-11T02:11:23.928Z,99.92
2023-02-11T02:13:50.941Z,100.00
2023-02-11T02:16:20.619Z,100.00
2023-02-11T02:19:05.498Z,100.00
2023-02-11T02:22:14.528Z,100.00
2023-02-11T02:25:12.866Z,100.00
2023-02-11T02:28:12.837Z,100.00
2023-02-11T02:31:23.916Z,100.00
2023-02-11T02:33:56.488Z,100.00
2023-02-11T02:36:31.924Z,100.00
2023-02-11T02:39:05.967Z,100.00
2023-02-11T02:41:34.105Z,100.00
2023-02-11T02:44:01.561Z,100.00
2023-02-11T02:46:31.163Z,100.00
2023-02-11T02:48:58.556Z,100.00
2023-02-11T02:51:40.429Z,100.00
2023-02-11T02:54:07.042Z,100.00
2023-02-11T02:56:50.428Z,100.00
2023-02-11T02:59:34.254Z,100.00
2023-02-11T03:02:00.796Z,100.00
2023-02-11T03:04:47.596Z,100.00
2023-02-11T03:07:55.716Z,100.00
2023-02-11T03:10:27.662Z,100.00
2023-02-11T03:12:55.430Z,100.00
2023-02-11T03:15:23.979Z,100.00
2023-02-11T03:17:52.506Z,100.00
2023-02-11T03:20:21.214Z,100.00
2023-02-11T03:23:37.470Z,100.00
2023-02-11T03:26:25.541Z,100.00
2023-02-11T03:28:59.929Z,100.00
2023-02-11T03:31:31.504Z,100.00
2023-02-11T03:34:09.572Z,100.00
2023-02-11T03:36:46.056Z,100.00
2023-02-11T03:39:19.135Z,100.00
2023-02-11T03:41:47.837Z,100.00
2023-02-11T03:44:15.960Z,100.00
2023-02-11T03:46:45.146Z,100.00
2023-02-11T03:49:13.958Z,100.00
2023-02-11T03:51:40.766Z,100.00
2023-02-11T03:54:12.110Z,100.00
2023-02-11T03:56:46.057Z,100.00
2023-02-11T03:59:12.675Z,100.00
2023-02-11T04:01:39.342Z,100.00
2023-02-11T04:04:06.056Z,100.00
2023-02-11T04:06:32.797Z,100.00
2023-02-11T04:08:59.634Z,100.00
2023-02-11T04:11:26.262Z,100.00
2023-02-11T04:13:52.967Z,100.00
2023-02-11T04:16:19.686Z,100.00
2023-02-11T04:18:46.306Z,100.00
2023-02-11T04:21:12.969Z,100.00
2023-02-11T04:23:44.693Z,100.00
2023-02-11T04:26:11.346Z,100.00
2023-02-11T04:28:38.060Z,100.00
2023-02-11T04:31:04.989Z,100.00
2023-02-11T04:33:31.749Z,100.00
2023-02-11T04:35:58.380Z,100.00
2023-02-11T04:38:25.049Z,100.00
2023-02-11T04:40:51.778Z,100.00
2023-02-11T04:43:18.499Z,100.00
2023-02-11T04:45:45.096Z,100.00
2023-02-11T04:48:11.703Z,100.00
2023-02-11T04:50:38.340Z,100.00
2023-02-11T04:53:04.983Z,100.00
2023-02-11T04:55:31.608Z,100.00
2023-02-11T04:57:58.248Z,100.00
2023-02-11T05:00:24.969Z,100.00
2023-02-11T05:02:51.609Z,100.00
2023-02-11T05:05:18.372Z,100.00
2023-02-11T05:07:45.027Z,100.00
2023-02-11T05:10:11.674Z,100.00
2023-02-11T05:12:38.418Z,100.00
2023-02-11T05:15:05.505Z,100.00
2023-02-11T05:17:32.213Z,100.00
2023-02-11T05:19:58.964Z,100.00
2023-02-11T05:22:25.636Z,100.00
2023-02-11T05:24:52.332Z,100.00
2023-02-11T05:27:18.991Z,100.00
2023-02-11T05:29:45.653Z,100.00
2023-02-11T05:32:12.307Z,100.00
2023-02-11T05:34:38.934Z,100.00
2023-02-11T05:37:05.592Z,100.00
2023-02-11T05:39:32.300Z,100.00
2023-02-11T05:41:59.031Z,100.00
2023-02-11T05:44:25.808Z,100.00
2023-02-11T05:46:52.443Z,100.00
2023-02-11T05:49:19.013Z,100.00
2023-02-11T05:51:45.767Z,100.00
2023-02-11T05:54:12.554Z,100.00
2023-02-11T05:56:39.178Z,100.00
2023-02-11T05:59:05.893Z,100.00
2023-02-11T06:01:32.514Z,100.00
2023-02-11T06:03:59.180Z,100.00
2023-02-11T06:06:25.904Z,100.00
2023-02-11T06:08:52.516Z,100.00
2023-02-11T06:11:20.464Z,100.00
2023-02-11T06:13:52.243Z,100.00
2023-02-11T06:16:18.956Z,100.00
2023-02-11T06:18:45.579Z,100.00
2023-02-11T06:21:12.794Z,100.00
2023-02-11T06:23:39.853Z,100.00
2023-02-11T06:26:08.923Z,100.00
2023-02-11T06:28:36.347Z,100.00
2023-02-11T06:31:07.048Z,100.00
2023-02-11T06:33:34.877Z,100.00
2023-02-11T06:36:02.001Z,100.00
2023-02-11T06:38:28.591Z,100.00
2023-02-11T06:40:55.232Z,100.00
2023-02-11T06:43:21.947Z,100.00
2023-02-11T06:45:55.373Z,100.00
2023-02-11T06:48:27.078Z,100.00
2023-02-11T06:50:53.699Z,100.00
2023-02-11T06:53:20.469Z,100.00
2023-02-11T06:55:47.197Z,100.00
2023-02-11T06:58:13.947Z,100.00
2023-02-11T07:00:40.720Z,100.00
2023-02-11T07:03:07.417Z,100.00
2023-02-11T07:05:34.458Z,100.00
2023-02-11T07:08:01.211Z,100.00
2023-02-11T07:10:27.903Z,100.00
2023-02-11T07:12:56.000Z,100.00
2023-02-11T07:15:24.302Z,100.00
2023-02-11T07:17:50.894Z,100.00
2023-02-11T07:20:17.640Z,100.00
2023-02-11T07:22:44.334Z,100.00
2023-02-11T07:25:11.011Z,100.00
2023-02-11T07:27:37.699Z,100.00
2023-02-11T07:30:07.231Z,100.00
2023-02-11T07:32:34.047Z,100.00
2023-02-11T07:35:00.735Z,100.00
2023-02-11T07:37:27.552Z,100.00
2023-02-11T07:39:54.171Z,100.00
2023-02-11T07:42:20.764Z,100.00
2023-02-11T07:44:50.221Z,100.00
2023-02-11T07:47:17.182Z,100.00
2023-02-11T07:49:43.850Z,100.00
2023-02-11T07:52:10.480Z,100.00
2023-02-11T07:54:37.144Z,100.00
2023-02-11T07:57:03.875Z,100.00
2023-02-11T07:59:30.596Z,100.00
2023-02-11T08:01:57.325Z,100.00
2023-02-11T08:04:23.984Z,100.00
2023-02-11T08:06:52.943Z,100.00
2023-02-11T08:09:19.582Z,100.00
2023-02-11T08:11:46.285Z,100.00
2023-02-11T08:14:13.055Z,100.00
2023-02-11T08:16:40.656Z,100.00
2023-02-11T08:19:11.153Z,100.00
2023-02-11T08:21:38.167Z,100.00
2023-02-11T08:24:05.178Z,100.00
2023-02-11T08:26:34.538Z,100.00
2023-02-11T08:29:02.966Z,100.00
2023-02-11T08:31:38.718Z,100.00
2023-02-11T08:34:05.945Z,100.00
2023-02-11T08:36:35.969Z,100.00
2023-02-11T08:39:18.133Z,100.00
2023-02-11T08:41:51.743Z,100.00
2023-02-11T08:44:19.607Z,100.00
2023-02-11T08:46:47.073Z,100.00
2023-02-11T08:49:14.337Z,100.00
2023-02-11T08:51:41.516Z,100.00
2023-02-11T08:54:11.051Z,100.00
2023-02-11T08:56:38.770Z,100.00
2023-02-11T08:59:06.100Z,100.00
2023-02-11T09:01:33.783Z,100.00
2023-02-11T09:04:01.265Z,100.00
2023-02-11T09:06:28.719Z,100.00
2023-02-11T09:08:56.999Z,100.00
2023-02-11T09:11:33.823Z,100.00
2023-02-11T09:14:01.587Z,100.00
2023-02-11T09:16:30.474Z,100.00
2023-02-11T09:18:59.065Z,100.00
2023-02-11T09:21:26.312Z,100.00
2023-02-11T09:23:53.398Z,100.00
2023-02-11T09:26:22.860Z,100.00
2023-02-11T09:28:50.049Z,100.00
2023-02-11T09:31:18.838Z,100.00
2023-02-11T09:33:50.537Z,100.00
2023-02-11T09:36:24.160Z,100.00
2023-02-11T09:38:51.667Z,100.00
2023-02-11T09:41:24.382Z,100.00
2023-02-11T09:43:59.849Z,100.00
2023-02-11T09:46:27.832Z,100.00
2023-02-11T09:48:54.964Z,100.00
2023-02-11T09:51:24.705Z,100.00
2023-02-11T09:53:54.728Z,100.00
2023-02-11T09:56:21.782Z,100.00
2023-02-11T09:58:48.507Z,100.00
2023-02-11T10:01:36.352Z,100.00
2023-02-11T10:04:09.170Z,100.00
2023-02-11T10:06:42.236Z,100.00
2023-02-11T10:09:27.568Z,100.00
2023-02-11T10:12:09.273Z,100.00
2023-02-11T10:14:39.029Z,100.00
2023-02-11T10:17:44.120Z,100.00
2023-02-11T10:20:23.333Z,100.00
2023-02-11T10:22:56.027Z,100.00
2023-02-11T10:25:34.416Z,100.00
2023-02-11T10:28:02.536Z,100.00
2023-02-11T10:30:35.355Z,100.00
2023-02-11T10:33:18.770Z,100.00
2023-02-11T10:35:45.805Z,100.00
2023-02-11T10:38:17.750Z,100.00
2023-02-11T10:40:44.807Z,100.00
2023-02-11T10:43:14.282Z,100.00
2023-02-11T10:45:47.407Z,100.00
2023-02-11T10:48:42.342Z,100.00
2023-02-11T10:51:25.842Z,100.00
2023-02-11T10:54:04.713Z,100.00
2023-02-11T10:56:33.326Z,100.00
2023-02-11T10:59:01.207Z,100.00
2023-02-11T11:01:53.865Z,100.00
2023-02-11T11:04:41.227Z,100.00
2023-02-11T11:07:25.933Z,100.00
2023-02-11T11:09:59.815Z,100.00
2023-02-11T11:12:46.684Z,100.00
2023-02-11T11:15:22.986Z,100.00
2023-02-11T11:18:22.413Z,100.00
2023-02-11T11:21:06.062Z,100.00
2023-02-11T11:23:35.226Z,100.00
2023-02-11T11:26:13.790Z,100.00
2023-02-11T11:29:03.102Z,100.00
2023-02-11T11:31:37.467Z,100.00
2023-02-11T11:34:21.286Z,100.00
2023-02-11T11:36:52.265Z,100.00
2023-02-11T11:39:30.492Z,100.00
2023-02-11T11:42:02.011Z,100.00
2023-02-11T11:44:40.894Z,100.00
2023-02-11T11:47:13.674Z,100.00
2023-02-11T11:50:04.246Z,100.00
2023-02-11T11:52:37.884Z,100.00
2023-02-11T11:55:17.511Z,100.00
2023-02-11T11:57:44.534Z,100.00
2023-02-11T12:00:20.911Z,100.00
2023-02-11T12:03:01.095Z,100.00
2023-02-11T12:05:50.287Z,100.00
2023-02-11T12:08:16.811Z,100.00
2023-02-11T12:11:16.053Z,100.00
2023-02-11T12:14:20.022Z,100.00
2023-02-11T12:16:55.914Z,100.00
2023-02-11T12:19:43.358Z,100.00
2023-02-11T12:22:12.813Z,100.00
2023-02-11T12:24:52.663Z,100.00
2023-02-11T12:27:32.613Z,100.00
2023-02-11T12:30:37.232Z,100.00
2023-02-11T12:33:22.220Z,100.00
2023-02-11T12:36:03.031Z,100.00
2023-02-11T12:38:38.035Z,100.00
2023-02-11T12:41:45.105Z,100.00
2023-02-11T12:44:40.052Z,100.00
2023-02-11T12:47:19.269Z,100.00
2023-02-11T12:49:49.914Z,100.00
2023-02-11T12:52:16.556Z,100.00
2023-02-11T12:54:48.193Z,100.00
2023-02-11T12:57:22.473Z,100.00
2023-02-11T12:59:57.938Z,100.00
2023-02-11T13:02:54.446Z,100.00
2023-02-11T13:05:32.246Z,100.00
2023-02-11T13:08:05.203Z,100.00
2023-02-11T13:10:40.712Z,100.00
2023-02-11T13:13:18.867Z,100.00
2023-02-11T13:15:52.355Z,100.00
2023-02-11T13:18:55.615Z,100.00
2023-02-11T13:21:29.838Z,100.00
2023-02-11T13:24:18.333Z,100.00
2023-02-11T13:27:13.102Z,100.00
2023-02-11T13:30:04.375Z,100.00
2023-02-11T13:32:56.320Z,100.00
2023-02-11T13:35:41.606Z,100.00
2023-02-11T13:38:18.426Z,100.00
2023-02-11T13:40:45.684Z,100.00
2023-02-11T13:43:28.970Z,100.00
2023-02-11T13:46:04.267Z,100.00
2023-02-11T13:48:37.385Z,100.00
2023-02-11T13:51:07.072Z,100.00
2023-02-11T13:53:56.488Z,100.00
2023-02-11T13:56:38.147Z,100.00
2023-02-11T13:59:27.685Z,100.00
2023-02-11T14:02:13.188Z,100.00
2023-02-11T14:05:23.541Z,100.00
2023-02-11T14:08:30.538Z,100.00
2023-02-11T14:11:15.522Z,100.00
2023-02-11T14:13:48.362Z,100.00
2023-02-11T14:16:31.580Z,100.00
2023-02-11T14:19:04.743Z,100.00
2023-02-11T14:21:44.690Z,100.00
2023-02-11T14:24:11.766Z,100.00
2023-02-11T14:26:47.773Z,100.00
2023-02-11T14:29:39.366Z,100.00
2023-02-11T14:32:41.050Z,100.00
2023-02-11T14:35:18.489Z,100.00
2023-02-11T14:38:09.990Z,100.00
2023-02-11T14:40:50.605Z,100.00
2023-02-11T14:43:20.936Z,100.00
2023-02-11T14:45:52.352Z,100.00
2023-02-11T14:48:20.440Z,100.00
2023-02-11T14:50:59.415Z,99.61
2023-02-11T14:53:26.507Z,98.09
2023-02-11T14:55:55.256Z,97.70
2023-02-11T14:58:28.163Z,98.17
2023-02-11T15:01:10.381Z,98.42
2023-02-11T15:03:42.066Z,99.19
2023-02-11T15:13:32.748Z,100.00
2023-02-11T15:16:07.962Z,100.00
2023-02-11T15:18:38.428Z,100.00
2023-02-11T15:21:09.075Z,100.00
2023-02-11T15:23:36.593Z,100.00
2023-02-11T15:26:13.336Z,100.00
2023-02-11T15:28:49.119Z,100.00
2023-02-11T15:31:17.682Z,100.00
2023-02-11T15:33:44.639Z,100.00
2023-02-11T15:36:15.711Z,100.00
2023-02-11T15:38:42.914Z,100.00
2023-02-11T15:41:36.944Z,100.00
2023-02-11T15:44:06.262Z,100.00
2023-02-11T15:46:40.400Z,100.00
2023-02-11T15:49:08.685Z,100.00
2023-02-11T15:51:38.453Z,100.00
2023-02-11T15:54:17.275Z,100.00
2023-02-11T15:56:46.133Z,100.00
2023-02-11T15:59:19.201Z,100.00
2023-02-11T16:01:46.927Z,100.00
2023-02-11T16:04:19.080Z,100.00
2023-02-11T16:06:49.292Z,100.00
2023-02-11T16:09:15.913Z,100.00
2023-02-11T16:11:58.374Z,100.00
2023-02-11T16:14:27.947Z,100.00
2023-02-11T16:17:00.617Z,100.00
2023-02-11T16:19:28.860Z,100.00
2023-02-11T16:21:57.188Z,100.00
2023-02-11T16:24:32.329Z,100.00
2023-02-11T16:27:04.644Z,100.00
2023-02-11T16:29:33.811Z,100.00
2023-02-11T16:32:10.012Z,100.00
2023-02-11T16:34:37.746Z,100.00
2023-02-11T16:37:05.652Z,100.00
2023-02-11T16:39:33.811Z,100.00
2023-02-11T16:42:01.546Z,100.00
2023-02-11T16:44:29.201Z,100.00
2023-02-11T16:46:59.216Z,100.00
2023-02-11T16:49:36.601Z,100.00
2023-02-11T16:52:13.275Z,100.00
2023-02-11T16:54:39.897Z,100.00
2023-02-11T16:57:32.783Z,100.00
2023-02-11T16:59:59.953Z,100.00
2023-02-11T17:02:29.740Z,100.00
2023-02-11T17:04:58.907Z,100.00
2023-02-11T17:07:26.014Z,100.00
2023-02-11T17:09:52.700Z,100.00
2023-02-11T17:12:20.296Z,100.00
2023-02-11T17:14:47.136Z,100.00
2023-02-11T17:17:14.090Z,100.00
2023-02-11T17:19:40.843Z,100.00
2023-02-11T17:22:07.761Z,100.00
2023-02-11T17:24:34.438Z,100.00
2023-02-11T17:27:01.061Z,100.00
2023-02-11T17:29:27.770Z,100.00
2023-02-11T17:31:54.730Z,100.00
2023-02-11T17:34:22.948Z,100.00
2023-02-11T17:36:50.042Z,100.00
2023-02-11T17:39:16.775Z,100.00
2023-02-11T17:41:43.649Z,100.00
2023-02-11T17:44:12.407Z,100.00
2023-02-11T17:46:39.724Z,100.00
2023-02-11T17:49:06.565Z,100.00
2023-02-11T17:51:35.673Z,100.00
2023-02-11T17:54:05.423Z,100.00
2023-02-11T17:56:33.389Z,100.00
2023-02-11T17:59:02.474Z,100.00
2023-02-11T18:01:30.076Z,100.00
2023-02-11T18:03:56.775Z,100.00
2023-02-11T18:06:23.668Z,100.00
2023-02-11T18:08:50.305Z,100.00
2023-02-11T18:11:17.041Z,100.00
2023-02-11T18:13:45.183Z,100.00
2023-02-11T18:16:15.981Z,100.00
2023-02-11T18:18:43.573Z,100.00
2023-02-11T18:21:15.514Z,100.00
2023-02-11T18:23:42.479Z,100.00
2023-02-11T18:26:10.476Z,100.00
2023-02-11T18:28:37.524Z,100.00
2023-02-11T18:31:05.152Z,100.00
2023-02-11T18:33:31.909Z,100.00
2023-02-11T18:35:58.751Z,100.00
2023-02-11T18:38:25.756Z,100.00
2023-02-11T18:40:52.587Z,100.00
2023-02-11T18:43:20.241Z,100.00
2023-02-11T18:45:48.297Z,100.00
2023-02-11T18:48:15.671Z,100.00
2023-02-11T18:50:44.739Z,100.00
2023-02-11T18:53:13.841Z,100.00
2023-02-11T18:55:41.854Z,100.00
2023-02-11T18:58:08.563Z,100.00
2023-02-11T19:00:37.548Z,100.00
2023-02-11T19:03:04.440Z,100.00
2023-02-11T19:05:33.570Z,100.00
2023-02-11T19:08:03.374Z,100.00
2023-02-11T19:10:30.075Z,100.00
2023-02-11T19:12:59.469Z,100.00
2023-02-11T19:15:26.399Z,100.00
2023-02-11T19:17:53.279Z,100.00
2023-02-11T19:20:20.188Z,100.00
2023-02-11T19:22:47.058Z,100.00
2023-02-11T19:25:22.745Z,100.00
2023-02-11T19:27:49.493Z,100.00
2023-02-11T19:30:16.420Z,100.00
2023-02-11T19:32:45.160Z,100.00
2023-02-11T19:35:12.148Z,100.00
2023-02-11T19:37:39.042Z,100.00
2023-02-11T19:40:06.693Z,100.00
2023-02-11T19:42:33.478Z,100.00
2023-02-11T19:45:07.403Z,100.00
2023-02-11T19:47:34.442Z,100.00
2023-02-11T19:50:01.169Z,100.00
2023-02-11T19:52:27.970Z,100.00
2023-02-11T19:54:54.727Z,100.00
2023-02-11T19:57:21.501Z,100.00
2023-02-11T19:59:48.241Z,100.00
2023-02-11T20:02:14.972Z,100.00
2023-02-11T20:04:41.681Z,100.00
2023-02-11T20:07:08.501Z,100.00
2023-02-11T20:09:35.258Z,100.00
2023-02-11T20:12:01.990Z,100.00
2023-02-11T20:14:28.687Z,100.00
2023-02-11T20:16:55.446Z,100.00
2023-02-11T20:19:22.330Z,100.00
2023-02-11T20:21:51.717Z,100.00
2023-02-11T20:24:19.206Z,100.00
2023-02-11T20:26:48.639Z,100.00
2023-02-11T20:29:17.141Z,100.00
2023-02-11T20:31:44.463Z,100.00
2023-02-11T20:34:12.418Z,100.00
2023-02-11T20:36:40.674Z,100.00
2023-02-11T20:39:08.063Z,100.00
2023-02-11T20:41:36.382Z,100.00
2023-02-11T20:44:06.482Z,100.00
2023-02-11T20:46:34.380Z,100.00
2023-02-11T20:49:02.016Z,100.00
2023-02-11T20:51:30.770Z,100.00
2023-02-11T20:53:57.906Z,100.00
2023-02-11T20:56:29.749Z,100.00
2023-02-11T20:59:00.750Z,100.00
2023-02-11T21:01:30.811Z,100.00
2023-02-11T21:04:02.550Z,100.00
2023-02-11T21:06:37.924Z,100.00
2023-02-11T21:09:05.882Z,100.00
2023-02-11T21:11:32.942Z,100.00
2023-02-11T21:14:00.154Z,100.00
2023-02-11T21:16:27.336Z,100.00
2023-02-11T21:18:55.596Z,100.00
2023-02-11T21:21:23.241Z,100.00
2023-02-11T21:23:50.294Z,100.00
2023-02-11T21:26:19.963Z,100.00
2023-02-11T21:28:46.638Z,100.00
2023-02-11T21:31:22.940Z,100.00
2023-02-11T21:33:50.659Z,100.00
2023-02-11T21:36:18.037Z,100.00
2023-02-11T21:38:45.048Z,100.00
2023-02-11T21:41:12.028Z,100.00
2023-02-11T21:43:38.886Z,100.00
2023-02-11T21:46:11.109Z,100.00
2023-02-11T21:48:43.465Z,100.00
2023-02-11T21:51:13.990Z,100.00
2023-02-11T21:53:40.725Z,100.00
2023-02-11T21:56:10.742Z,100.00
2023-02-11T21:58:37.861Z,100.00
2023-02-11T22:01:32.412Z,100.00
2023-02-11T22:03:59.875Z,100.00
2023-02-11T22:06:31.091Z,100.00
2023-02-11T22:09:10.007Z,100.00
2023-02-11T22:11:37.760Z,100.00
2023-02-11T22:14:05.121Z,100.00
2023-02-11T22:16:31.968Z,100.00
2023-02-11T22:18:59.115Z,100.00
2023-02-11T22:21:25.940Z,100.00
2023-02-11T22:23:54.847Z,100.00
2023-02-11T22:26:23.597Z,100.00
2023-02-11T22:28:51.118Z,100.00
2023-02-11T22:31:36.468Z,100.00
2023-02-11T22:34:04.777Z,100.00
2023-02-11T22:36:37.470Z,100.00
2023-02-11T22:39:07.258Z,100.00
2023-02-11T22:41:34.350Z,100.00
2023-02-11T22:44:01.228Z,100.00
2023-02-11T22:46:28.782Z,100.00
2023-02-11T22:48:55.603Z,100.00
2023-02-11T22:51:24.646Z,100.00
2023-02-11T22:53:53.255Z,100.00
2023-02-11T22:56:24.048Z,100.00
2023-02-11T22:58:52.299Z,100.00
2023-02-11T23:01:19.620Z,100.00
2023-02-11T23:03:46.495Z,100.00
2023-02-11T23:06:13.361Z,100.00
2023-02-11T23:08:40.916Z,100.00
2023-02-11T23:11:19.613Z,100.00
2023-02-11T23:13:47.495Z,100.00
2023-02-11T23:16:20.126Z,100.00
2023-02-11T23:18:48.275Z,100.00
2023-02-11T23:21:21.562Z,100.00
2023-02-11T23:23:49.661Z,100.00
2023-02-11T23:26:18.495Z,100.00
2023-02-11T23:28:48.782Z,100.00
2023-02-11T23:31:20.579Z,100.00
2023-02-11T23:33:47.945Z,100.00
2023-02-11T23:36:15.346Z,100.00
2023-02-11T23:38:42.202Z,100.00
2023-02-11T23:41:09.058Z,100.00
2023-02-11T23:43:35.764Z,100.00
2023-02-11T23:46:02.574Z,100.00
2023-02-11T23:48:29.327Z,100.00
2023-02-11T23:50:55.990Z,100.00
2023-02-11T23:53:22.652Z,100.00
2023-02-11T23:55:49.427Z,100.00
2023-02-11T23:58:16.717Z,100.00
